sensor_id;sensor_type;location;lat;lon;timestamp;P1;durP1;ratioP1;P2;durP2;ratioP2
17636;SDS011;8937;51.236;6.794;2022-10-15T00:00:43;3.57;;;3.27;;
17636;SDS011;8937;51.236;6.794;2022-10-15T00:09:04;3.80;;;3.50;;
17636;SDS011;8937;51.236;6.794;2022-10-15T00:17:27;3.30;;;3.00;;
17636;SDS011;8937;51.236;6.794;2022-10-15T00:25:48;5.07;;;3.53;;
17636;SDS011;8937;51.236;6.794;2022-10-15T00:34:11;3.97;;;3.67;;
17636;SDS011;8937;51.236;6.794;2022-10-15T00:42:32;5.00;;;3.77;;
17636;SDS011;8937;51.236;6.794;2022-10-15T00:50:55;3.73;;;3.43;;
17636;SDS011;8937;51.236;6.794;2022-10-15T00:59:17;4.20;;;3.57;;
17636;SDS011;8937;51.236;6.794;2022-10-15T01:07:41;4.17;;;3.50;;
17636;SDS011;8937;51.236;6.794;2022-10-15T01:16:04;4.43;;;3.37;;
17636;SDS011;8937;51.236;6.794;2022-10-15T01:41:42;5.07;;;3.63;;
17636;SDS011;8937;51.236;6.794;2022-10-15T01:50:04;4.03;;;3.67;;
17636;SDS011;8937;51.236;6.794;2022-10-15T01:58:28;4.60;;;4.00;;
17636;SDS011;8937;51.236;6.794;2022-10-15T02:06:52;4.57;;;3.57;;
17636;SDS011;8937;51.236;6.794;2022-10-15T02:15:17;4.63;;;4.17;;
17636;SDS011;8937;51.236;6.794;2022-10-15T02:23:40;6.60;;;5.97;;
17636;SDS011;8937;51.236;6.794;2022-10-15T02:32:06;6.97;;;6.27;;
17636;SDS011;8937;51.236;6.794;2022-10-15T02:40:28;6.67;;;5.33;;
17636;SDS011;8937;51.236;6.794;2022-10-15T02:48:54;11.13;;;5.07;;
17636;SDS011;8937;51.236;6.794;2022-10-15T02:57:15;5.97;;;4.87;;
17636;SDS011;8937;51.236;6.794;2022-10-15T03:05:38;5.83;;;5.23;;
17636;SDS011;8937;51.236;6.794;2022-10-15T03:13:59;5.63;;;5.10;;
17636;SDS011;8937;51.236;6.794;2022-10-15T03:22:22;4.37;;;3.97;;
17636;SDS011;8937;51.236;6.794;2022-10-15T03:30:43;5.60;;;3.73;;
17636;SDS011;8937;51.236;6.794;2022-10-15T03:39:06;3.63;;;3.33;;
17636;SDS011;8937;51.236;6.794;2022-10-15T03:47:27;4.73;;;3.60;;
17636;SDS011;8937;51.236;6.794;2022-10-15T03:55:50;4.10;;;3.70;;
17636;SDS011;8937;51.236;6.794;2022-10-15T04:04:11;3.70;;;3.40;;
17636;SDS011;8937;51.236;6.794;2022-10-15T04:12:34;3.50;;;3.20;;
17636;SDS011;8937;51.236;6.794;2022-10-15T04:20:57;3.27;;;2.97;;
17636;SDS011;8937;51.236;6.794;2022-10-15T04:29:20;3.40;;;3.10;;
17636;SDS011;8937;51.236;6.794;2022-10-15T04:37:41;5.83;;;3.43;;
17636;SDS011;8937;51.236;6.794;2022-10-15T04:46:05;3.20;;;2.97;;
17636;SDS011;8937;51.236;6.794;2022-10-15T04:54:26;4.10;;;3.47;;
17636;SDS011;8937;51.236;6.794;2022-10-15T05:02:49;3.77;;;3.47;;
17636;SDS011;8937;51.236;6.794;2022-10-15T05:11:11;5.27;;;3.80;;
17636;SDS011;8937;51.236;6.794;2022-10-15T05:19:34;4.77;;;3.67;;
17636;SDS011;8937;51.236;6.794;2022-10-15T05:27:55;4.73;;;4.03;;
17636;SDS011;8937;51.236;6.794;2022-10-15T05:36:19;5.23;;;4.20;;
17636;SDS011;8937;51.236;6.794;2022-10-15T05:44:40;5.93;;;4.23;;
17636;SDS011;8937;51.236;6.794;2022-10-15T05:53:03;6.10;;;4.27;;
17636;SDS011;8937;51.236;6.794;2022-10-15T06:01:24;4.80;;;4.03;;
17636;SDS011;8937;51.236;6.794;2022-10-15T06:09:47;7.33;;;4.53;;
17636;SDS011;8937;51.236;6.794;2022-10-15T06:18:09;6.67;;;5.10;;
17636;SDS011;8937;51.236;6.794;2022-10-15T06:26:31;5.63;;;4.83;;
17636;SDS011;8937;51.236;6.794;2022-10-15T06:34:53;5.17;;;4.47;;
17636;SDS011;8937;51.236;6.794;2022-10-15T06:43:15;5.23;;;4.73;;
17636;SDS011;8937;51.236;6.794;2022-10-15T06:51:37;6.97;;;4.90;;
17636;SDS011;8937;51.236;6.794;2022-10-15T07:00:00;5.90;;;5.00;;
17636;SDS011;8937;51.236;6.794;2022-10-15T07:08:21;8.17;;;6.00;;
17636;SDS011;8937;51.236;6.794;2022-10-15T07:16:43;9.33;;;5.97;;
17636;SDS011;8937;51.236;6.794;2022-10-15T07:25:05;7.30;;;5.80;;
17636;SDS011;8937;51.236;6.794;2022-10-15T07:33:30;7.40;;;6.10;;
17636;SDS011;8937;51.236;6.794;2022-10-15T07:41:53;7.37;;;6.10;;
17636;SDS011;8937;51.236;6.794;2022-10-15T07:50:16;7.23;;;5.53;;
17636;SDS011;8937;51.236;6.794;2022-10-15T07:58:37;6.73;;;5.17;;
17636;SDS011;8937;51.236;6.794;2022-10-15T08:07:00;5.00;;;4.50;;
17636;SDS011;8937;51.236;6.794;2022-10-15T08:15:21;7.13;;;3.97;;
17636;SDS011;8937;51.236;6.794;2022-10-15T08:23:44;4.30;;;3.73;;
17636;SDS011;8937;51.236;6.794;2022-10-15T08:32:06;4.00;;;3.60;;
17636;SDS011;8937;51.236;6.794;2022-10-15T08:40:29;2.83;;;2.63;;
17636;SDS011;8937;51.236;6.794;2022-10-15T08:48:52;2.83;;;2.37;;
17636;SDS011;8937;51.236;6.794;2022-10-15T08:57:21;2.20;;;2.10;;
17636;SDS011;8937;51.236;6.794;2022-10-15T09:05:52;2.13;;;1.97;;
17636;SDS011;8937;51.236;6.794;2022-10-15T09:14:19;1.57;;;1.50;;
17636;SDS011;8937;51.236;6.794;2022-10-15T09:22:42;1.60;;;1.50;;
17636;SDS011;8937;51.236;6.794;2022-10-15T09:31:04;2.40;;;1.70;;
17636;SDS011;8937;51.236;6.794;2022-10-15T09:39:35;1.30;;;1.30;;
17636;SDS011;8937;51.236;6.794;2022-10-15T09:48:00;2.47;;;1.07;;
17636;SDS011;8937;51.236;6.794;2022-10-15T09:56:23;1.27;;;1.23;;
17636;SDS011;8937;51.236;6.794;2022-10-15T10:04:47;1.00;;;1.00;;
17636;SDS011;8937;51.236;6.794;2022-10-15T10:13:17;0.77;;;0.77;;
17636;SDS011;8937;51.236;6.794;2022-10-15T10:21:42;1.23;;;1.13;;
17636;SDS011;8937;51.236;6.794;2022-10-15T10:30:05;1.40;;;1.30;;
17636;SDS011;8937;51.236;6.794;2022-10-15T10:38:29;1.67;;;1.57;;
17636;SDS011;8937;51.236;6.794;2022-10-15T10:47:01;1.10;;;1.10;;
17636;SDS011;8937;51.236;6.794;2022-10-15T10:55:26;0.80;;;0.80;;
17636;SDS011;8937;51.236;6.794;2022-10-15T11:03:51;0.80;;;0.80;;
17636;SDS011;8937;51.236;6.794;2022-10-15T11:12:19;1.00;;;1.00;;
17636;SDS011;8937;51.236;6.794;2022-10-15T11:20:46;1.13;;;1.13;;
17636;SDS011;8937;51.236;6.794;2022-10-15T11:29:14;0.85;;;0.85;;
17636;SDS011;8937;51.236;6.794;2022-10-15T11:37:40;2.03;;;0.80;;
17636;SDS011;8937;51.236;6.794;2022-10-15T11:46:07;0.97;;;0.93;;
17636;SDS011;8937;51.236;6.794;2022-10-15T11:54:33;1.45;;;1.10;;
17636;SDS011;8937;51.236;6.794;2022-10-15T12:03:00;1.38;;;1.27;;
17636;SDS011;8937;51.236;6.794;2022-10-15T12:11:26;1.55;;;0.93;;
17636;SDS011;8937;51.236;6.794;2022-10-15T12:19:50;1.50;;;1.27;;
17636;SDS011;8937;51.236;6.794;2022-10-15T12:28:15;7.40;;;2.35;;
17636;SDS011;8937;51.236;6.794;2022-10-15T12:36:38;2.80;;;1.50;;
17636;SDS011;8937;51.236;6.794;2022-10-15T12:45:00;1.35;;;1.20;;
17636;SDS011;8937;51.236;6.794;2022-10-15T12:53:28;0.80;;;0.80;;
17636;SDS011;8937;51.236;6.794;2022-10-15T13:01:51;0.70;;;0.70;;
17636;SDS011;8937;51.236;6.794;2022-10-15T13:10:17;1.15;;;0.73;;
17636;SDS011;8937;51.236;6.794;2022-10-15T13:18:40;0.80;;;0.80;;
17636;SDS011;8937;51.236;6.794;2022-10-15T13:27:12;0.40;;;0.40;;
17636;SDS011;8937;51.236;6.794;2022-10-15T13:35:36;0.80;;;0.80;;
17636;SDS011;8937;51.236;6.794;2022-10-15T13:44:00;0.70;;;0.70;;
17636;SDS011;8937;51.236;6.794;2022-10-15T13:52:22;0.60;;;0.60;;
17636;SDS011;8937;51.236;6.794;2022-10-15T14:00:48;0.63;;;0.63;;
17636;SDS011;8937;51.236;6.794;2022-10-15T14:09:12;0.70;;;0.70;;
17636;SDS011;8937;51.236;6.794;2022-10-15T14:17:38;0.90;;;0.90;;
17636;SDS011;8937;51.236;6.794;2022-10-15T14:26:00;0.70;;;0.70;;
17636;SDS011;8937;51.236;6.794;2022-10-15T14:34:27;0.95;;;0.95;;
17636;SDS011;8937;51.236;6.794;2022-10-15T14:42:59;1.20;;;1.10;;
17636;SDS011;8937;51.236;6.794;2022-10-15T14:51:23;0.95;;;0.93;;
17636;SDS011;8937;51.236;6.794;2022-10-15T14:59:45;0.80;;;0.80;;
17636;SDS011;8937;51.236;6.794;2022-10-15T15:08:08;0.70;;;0.70;;
17636;SDS011;8937;51.236;6.794;2022-10-15T15:16:29;0.70;;;0.70;;
17636;SDS011;8937;51.236;6.794;2022-10-15T15:24:53;0.82;;;0.82;;
17636;SDS011;8937;51.236;6.794;2022-10-15T15:33:15;2.00;;;0.60;;
17636;SDS011;8937;51.236;6.794;2022-10-15T15:41:38;1.15;;;1.05;;
17636;SDS011;8937;51.236;6.794;2022-10-15T15:50:00;2.17;;;1.35;;
17636;SDS011;8937;51.236;6.794;2022-10-15T15:58:23;2.08;;;1.88;;
17636;SDS011;8937;51.236;6.794;2022-10-15T16:06:45;2.13;;;2.03;;
17636;SDS011;8937;51.236;6.794;2022-10-15T16:15:09;1.77;;;1.67;;
17636;SDS011;8937;51.236;6.794;2022-10-15T16:23:31;1.60;;;1.50;;
17636;SDS011;8937;51.236;6.794;2022-10-15T16:31:53;2.83;;;1.20;;
17636;SDS011;8937;51.236;6.794;2022-10-15T16:40:15;1.23;;;1.23;;
17636;SDS011;8937;51.236;6.794;2022-10-15T16:48:39;2.23;;;1.80;;
17636;SDS011;8937;51.236;6.794;2022-10-15T16:57:00;2.53;;;2.33;;
17636;SDS011;8937;51.236;6.794;2022-10-15T17:05:24;2.28;;;2.17;;
17636;SDS011;8937;51.236;6.794;2022-10-15T17:13:45;2.00;;;1.90;;
17636;SDS011;8937;51.236;6.794;2022-10-15T17:22:08;1.40;;;1.40;;
17636;SDS011;8937;51.236;6.794;2022-10-15T17:30:30;2.67;;;2.47;;
17636;SDS011;8937;51.236;6.794;2022-10-15T17:38:55;2.10;;;2.00;;
17636;SDS011;8937;51.236;6.794;2022-10-15T17:47:16;3.13;;;1.70;;
17636;SDS011;8937;51.236;6.794;2022-10-15T17:55:39;1.70;;;1.60;;
17636;SDS011;8937;51.236;6.794;2022-10-15T18:04:01;2.40;;;1.90;;
17636;SDS011;8937;51.236;6.794;2022-10-15T18:12:23;1.83;;;1.73;;
17636;SDS011;8937;51.236;6.794;2022-10-15T18:20:45;1.40;;;1.30;;
17636;SDS011;8937;51.236;6.794;2022-10-15T18:29:08;1.73;;;1.63;;
17636;SDS011;8937;51.236;6.794;2022-10-15T18:37:30;2.60;;;2.40;;
17636;SDS011;8937;51.236;6.794;2022-10-15T18:45:52;3.47;;;2.67;;
17636;SDS011;8937;51.236;6.794;2022-10-15T18:54:14;2.90;;;2.27;;
17636;SDS011;8937;51.236;6.794;2022-10-15T19:02:37;3.00;;;2.80;;
17636;SDS011;8937;51.236;6.794;2022-10-15T19:11:02;2.20;;;2.00;;
17636;SDS011;8937;51.236;6.794;2022-10-15T19:19:25;3.43;;;2.33;;
17636;SDS011;8937;51.236;6.794;2022-10-15T19:27:46;4.77;;;3.30;;
17636;SDS011;8937;51.236;6.794;2022-10-15T19:36:09;2.83;;;2.60;;
17636;SDS011;8937;51.236;6.794;2022-10-15T19:44:31;3.93;;;2.83;;
17636;SDS011;8937;51.236;6.794;2022-10-15T19:52:54;2.33;;;2.20;;
17636;SDS011;8937;51.236;6.794;2022-10-15T20:01:16;3.03;;;2.50;;
17636;SDS011;8937;51.236;6.794;2022-10-15T20:09:39;5.37;;;3.40;;
17636;SDS011;8937;51.236;6.794;2022-10-15T20:18:00;3.70;;;3.33;;
17636;SDS011;8937;51.236;6.794;2022-10-15T20:26:23;4.60;;;2.90;;
17636;SDS011;8937;51.236;6.794;2022-10-15T20:34:45;5.07;;;2.83;;
17636;SDS011;8937;51.236;6.794;2022-10-15T20:43:07;6.23;;;3.57;;
17636;SDS011;8937;51.236;6.794;2022-10-15T20:51:29;2.80;;;2.50;;
17636;SDS011;8937;51.236;6.794;2022-10-15T20:59:52;6.77;;;3.43;;
17636;SDS011;8937;51.236;6.794;2022-10-15T21:08:13;6.50;;;4.47;;
17636;SDS011;8937;51.236;6.794;2022-10-15T21:16:36;5.73;;;3.40;;
17636;SDS011;8937;51.236;6.794;2022-10-15T21:24:57;6.90;;;4.03;;
17636;SDS011;8937;51.236;6.794;2022-10-15T21:33:20;4.23;;;3.50;;
17636;SDS011;8937;51.236;6.794;2022-10-15T21:41:41;3.10;;;2.60;;
17636;SDS011;8937;51.236;6.794;2022-10-15T21:50:05;6.20;;;2.47;;
17636;SDS011;8937;51.236;6.794;2022-10-15T21:58:26;22.30;;;14.27;;
17636;SDS011;8937;51.236;6.794;2022-10-15T22:06:49;7.23;;;5.10;;
17636;SDS011;8937;51.236;6.794;2022-10-15T22:15:10;5.70;;;4.57;;
17636;SDS011;8937;51.236;6.794;2022-10-15T22:23:33;3.93;;;2.57;;
17636;SDS011;8937;51.236;6.794;2022-10-15T22:31:54;2.47;;;2.13;;
17636;SDS011;8937;51.236;6.794;2022-10-15T22:40:17;2.87;;;1.87;;
17636;SDS011;8937;51.236;6.794;2022-10-15T22:48:39;3.47;;;2.60;;
17636;SDS011;8937;51.236;6.794;2022-10-15T22:57:02;2.90;;;2.70;;
17636;SDS011;8937;51.236;6.794;2022-10-15T23:05:24;3.97;;;3.37;;
17636;SDS011;8937;51.236;6.794;2022-10-15T23:13:50;6.00;;;3.90;;
17636;SDS011;8937;51.236;6.794;2022-10-15T23:22:11;3.83;;;2.80;;
17636;SDS011;8937;51.236;6.794;2022-10-15T23:30:34;2.70;;;2.27;;
17636;SDS011;8937;51.236;6.794;2022-10-15T23:38:56;2.70;;;2.40;;
17636;SDS011;8937;51.236;6.794;2022-10-15T23:47:19;2.27;;;2.07;;
17636;SDS011;8937;51.236;6.794;2022-10-15T23:55:40;2.13;;;1.90;;
